sensor_id;sensor_type;location;lat;lon;timestamp;P1;durP1;ratioP1;P2;durP2;ratioP2
51292;SDS011;37377;45.186;9.778;2024-01-25T08:04:00;135.2;;;117.2;;
51292;SDS011;37377;45.186;9.778;2024-01-25T08:05:01;135.2;;;117.2;;
51292;SDS011;37377;45.186;9.778;2024-01-25T08:06:02;135.2;;;117.2;;
51292;SDS011;37377;45.186;9.778;2024-01-25T08:07:01;135.2;;;117.2;;
51292;SDS011;37377;45.186;9.778;2024-01-25T08:08:01;135.2;;;117.2;;
51292;SDS011;37377;45.186;9.778;2024-01-25T08:09:00;135.2;;;117.2;;
51292;SDS011;37377;45.186;9.778;2024-01-25T08:10:00;135.2;;;117.2;;
51292;SDS011;37377;45.186;9.778;2024-01-25T08:11:00;97.1;;;86.5;;
51292;SDS011;37377;45.186;9.778;2024-01-25T08:12:00;97.1;;;86.5;;
51292;SDS011;37377;45.186;9.778;2024-01-25T08:13:08;164.3;;;89.9;;
51292;SDS011;37377;45.186;9.778;2024-01-25T08:14:00;164.3;;;89.9;;
51292;SDS011;37377;45.186;9.778;2024-01-25T08:15:00;164.3;;;89.9;;
51292;SDS011;37377;45.186;9.778;2024-01-25T08:16:00;164.3;;;89.9;;
51292;SDS011;37377;45.186;9.778;2024-01-25T08:17:01;164.3;;;89.9;;
51292;SDS011;37377;45.186;9.778;2024-01-25T08:18:00;164.3;;;89.9;;
51292;SDS011;37377;45.186;9.778;2024-01-25T08:19:01;284.0;;;97.6;;
51292;SDS011;37377;45.186;9.778;2024-01-25T08:20:00;284.0;;;97.6;;
51292;SDS011;37377;45.186;9.778;2024-01-25T08:21:01;123.1;;;34.9;;
51292;SDS011;37377;45.186;9.778;2024-01-25T08:22:00;123.1;;;34.9;;
51292;SDS011;37377;45.186;9.778;2024-01-25T08:23:00;123.1;;;34.9;;
51292;SDS011;37377;45.186;9.778;2024-01-25T08:24:00;123.1;;;34.9;;
51292;SDS011;37377;45.186;9.778;2024-01-25T08:25:00;617.8;;;134.2;;
51292;SDS011;37377;45.186;9.778;2024-01-25T08:26:00;617.8;;;134.2;;
51292;SDS011;37377;45.186;9.778;2024-01-25T08:27:00;617.8;;;134.2;;
51292;SDS011;37377;45.186;9.778;2024-01-25T08:28:00;747.8;;;147.8;;
51292;SDS011;37377;45.186;9.778;2024-01-25T08:29:01;745.8;;;151.7;;
51292;SDS011;37377;45.186;9.778;2024-01-25T08:30:00;745.8;;;151.7;;
51292;SDS011;37377;45.186;9.778;2024-01-25T08:31:00;745.8;;;151.7;;
51292;SDS011;37377;45.186;9.778;2024-01-25T08:32:00;745.8;;;151.7;;
51292;SDS011;37377;45.186;9.778;2024-01-25T08:33:01;745.8;;;151.7;;
51292;SDS011;37377;45.186;9.778;2024-01-25T08:34:00;745.8;;;151.7;;
51292;SDS011;37377;45.186;9.778;2024-01-25T08:35:01;745.8;;;151.7;;
51292;SDS011;37377;45.186;9.778;2024-01-25T08:40:00;102.8;;;89.6;;
51292;SDS011;37377;45.186;9.778;2024-01-25T08:41:00;102.8;;;89.6;;
51292;SDS011;37377;45.186;9.778;2024-01-25T08:42:03;102.8;;;89.6;;
51292;SDS011;37377;45.186;9.778;2024-01-25T08:43:00;102.8;;;89.6;;
51292;SDS011;37377;45.186;9.778;2024-01-25T08:44:00;104.6;;;87.6;;
51292;SDS011;37377;45.186;9.778;2024-01-25T08:45:00;104.6;;;87.6;;
51292;SDS011;37377;45.186;9.778;2024-01-25T08:46:01;104.6;;;87.6;;
51292;SDS011;37377;45.186;9.778;2024-01-25T08:47:00;110.9;;;86.7;;
51292;SDS011;37377;45.186;9.778;2024-01-25T08:48:00;110.9;;;86.7;;
51292;SDS011;37377;45.186;9.778;2024-01-25T08:49:01;116.4;;;82.7;;
51292;SDS011;37377;45.186;9.778;2024-01-25T08:50:00;116.4;;;82.7;;
51292;SDS011;37377;45.186;9.778;2024-01-25T08:51:00;116.4;;;82.7;;
51292;SDS011;37377;45.186;9.778;2024-01-25T08:52:00;132.6;;;81.1;;
51292;SDS011;37377;45.186;9.778;2024-01-25T08:53:00;132.6;;;81.1;;
51292;SDS011;37377;45.186;9.778;2024-01-25T08:54:01;101.1;;;80.2;;
51292;SDS011;37377;45.186;9.778;2024-01-25T08:55:00;101.1;;;80.2;;
51292;SDS011;37377;45.186;9.778;2024-01-25T08:56:04;101.1;;;80.2;;
51292;SDS011;37377;45.186;9.778;2024-01-25T08:57:00;83.2;;;71.9;;
51292;SDS011;37377;45.186;9.778;2024-01-25T08:58:00;83.2;;;71.9;;
51292;SDS011;37377;45.186;9.778;2024-01-25T08:59:00;79.3;;;70.3;;
51292;SDS011;37377;45.186;9.778;2024-01-25T09:00:00;79.3;;;70.3;;
51292;SDS011;37377;45.186;9.778;2024-01-25T09:01:01;80.0;;;70.0;;
51292;SDS011;37377;45.186;9.778;2024-01-25T09:02:01;80.0;;;70.0;;
51292;SDS011;37377;45.186;9.778;2024-01-25T09:03:00;79.1;;;68.5;;
51292;SDS011;37377;45.186;9.778;2024-01-25T09:04:02;79.1;;;68.5;;
51292;SDS011;37377;45.186;9.778;2024-01-25T09:05:00;79.1;;;68.5;;
51292;SDS011;37377;45.186;9.778;2024-01-25T09:06:05;79.1;;;68.5;;
51292;SDS011;37377;45.186;9.778;2024-01-25T09:07:00;79.1;;;68.5;;
51292;SDS011;37377;45.186;9.778;2024-01-25T09:09:00;82.2;;;68.2;;
51292;SDS011;37377;45.186;9.778;2024-01-25T09:10:01;82.2;;;68.2;;
51292;SDS011;37377;45.186;9.778;2024-01-25T09:11:00;84.3;;;69.9;;
51292;SDS011;37377;45.186;9.778;2024-01-25T09:12:00;84.3;;;69.9;;
51292;SDS011;37377;45.186;9.778;2024-01-25T09:13:00;84.3;;;69.9;;
51292;SDS011;37377;45.186;9.778;2024-01-25T09:14:00;84.3;;;69.9;;
51292;SDS011;37377;45.186;9.778;2024-01-25T09:15:01;84.3;;;69.9;;
51292;SDS011;37377;45.186;9.778;2024-01-25T09:16:00;84.3;;;69.9;;
51292;SDS011;37377;45.186;9.778;2024-01-25T09:17:00;84.3;;;69.9;;
51292;SDS011;37377;45.186;9.778;2024-01-25T09:18:01;84.3;;;69.9;;
51292;SDS011;37377;45.186;9.778;2024-01-25T09:19:01;84.3;;;69.9;;
51292;SDS011;37377;45.186;9.778;2024-01-25T09:20:01;84.3;;;69.9;;
51292;SDS011;37377;45.186;9.778;2024-01-25T09:21:00;84.3;;;69.9;;
51292;SDS011;37377;45.186;9.778;2024-01-25T09:23:00;102.5;;;82.9;;
51292;SDS011;37377;45.186;9.778;2024-01-25T09:24:00;101.0;;;82.9;;
51292;SDS011;37377;45.186;9.778;2024-01-25T09:25:00;103.5;;;84.0;;
51292;SDS011;37377;45.186;9.778;2024-01-25T09:26:00;103.5;;;84.0;;
51292;SDS011;37377;45.186;9.778;2024-01-25T09:27:00;103.5;;;84.0;;
51292;SDS011;37377;45.186;9.778;2024-01-25T09:28:01;104.1;;;83.6;;
51292;SDS011;37377;45.186;9.778;2024-01-25T09:29:00;104.1;;;83.6;;
51292;SDS011;37377;45.186;9.778;2024-01-25T09:30:00;113.0;;;88.2;;
51292;SDS011;37377;45.186;9.778;2024-01-25T09:31:00;109.6;;;88.8;;
51292;SDS011;37377;45.186;9.778;2024-01-25T09:32:00;109.6;;;88.8;;
51292;SDS011;37377;45.186;9.778;2024-01-25T09:33:00;109.6;;;88.8;;
51292;SDS011;37377;45.186;9.778;2024-01-25T09:34:01;109.6;;;88.8;;
51292;SDS011;37377;45.186;9.778;2024-01-25T09:35:01;115.8;;;93.5;;
51292;SDS011;37377;45.186;9.778;2024-01-25T09:36:01;115.8;;;93.5;;
51292;SDS011;37377;45.186;9.778;2024-01-25T09:37:01;116.9;;;92.3;;
51292;SDS011;37377;45.186;9.778;2024-01-25T09:38:00;116.9;;;92.3;;
51292;SDS011;37377;45.186;9.778;2024-01-25T09:39:00;116.9;;;92.3;;
51292;SDS011;37377;45.186;9.778;2024-01-25T09:40:04;116.0;;;89.3;;
51292;SDS011;37377;45.186;9.778;2024-01-25T09:41:01;116.0;;;89.3;;
51292;SDS011;37377;45.186;9.778;2024-01-25T09:42:01;116.0;;;89.3;;
51292;SDS011;37377;45.186;9.778;2024-01-25T09:43:00;116.0;;;89.3;;
51292;SDS011;37377;45.186;9.778;2024-01-25T09:44:00;116.0;;;89.3;;
51292;SDS011;37377;45.186;9.778;2024-01-25T09:45:00;116.0;;;89.3;;
51292;SDS011;37377;45.186;9.778;2024-01-25T09:46:01;116.0;;;89.3;;
51292;SDS011;37377;45.186;9.778;2024-01-25T09:47:03;117.1;;;95.6;;
51292;SDS011;37377;45.186;9.778;2024-01-25T09:48:04;117.1;;;95.6;;
51292;SDS011;37377;45.186;9.778;2024-01-25T09:49:01;117.1;;;95.6;;
51292;SDS011;37377;45.186;9.778;2024-01-25T09:50:01;117.1;;;95.6;;
51292;SDS011;37377;45.186;9.778;2024-01-25T09:51:02;117.1;;;95.6;;
51292;SDS011;37377;45.186;9.778;2024-01-25T09:52:03;140.6;;;112.0;;
51292;SDS011;37377;45.186;9.778;2024-01-25T09:53:02;140.6;;;112.0;;
51292;SDS011;37377;45.186;9.778;2024-01-25T09:54:00;144.3;;;115.8;;
51292;SDS011;37377;45.186;9.778;2024-01-25T09:55:01;144.3;;;115.8;;
51292;SDS011;37377;45.186;9.778;2024-01-25T09:56:05;149.1;;;117.9;;
51292;SDS011;37377;45.186;9.778;2024-01-25T09:57:02;149.1;;;117.9;;
51292;SDS011;37377;45.186;9.778;2024-01-25T09:58:00;149.1;;;117.9;;
51292;SDS011;37377;45.186;9.778;2024-01-25T09:59:01;157.6;;;122.5;;
51292;SDS011;37377;45.186;9.778;2024-01-25T10:00:01;157.6;;;122.5;;
51292;SDS011;37377;45.186;9.778;2024-01-25T10:01:02;157.6;;;122.5;;
51292;SDS011;37377;45.186;9.778;2024-01-25T10:02:01;157.6;;;122.5;;
51292;SDS011;37377;45.186;9.778;2024-01-25T10:03:00;163.0;;;129.4;;
51292;SDS011;37377;45.186;9.778;2024-01-25T10:04:01;163.0;;;129.4;;
51292;SDS011;37377;45.186;9.778;2024-01-25T10:05:00;163.0;;;129.4;;
51292;SDS011;37377;45.186;9.778;2024-01-25T10:09:00;173.2;;;135.0;;
51292;SDS011;37377;45.186;9.778;2024-01-25T10:10:00;176.1;;;137.0;;
51292;SDS011;37377;45.186;9.778;2024-01-25T10:11:00;176.1;;;137.0;;
51292;SDS011;37377;45.186;9.778;2024-01-25T10:12:10;176.1;;;137.0;;
51292;SDS011;37377;45.186;9.778;2024-01-25T10:13:01;176.1;;;137.0;;
51292;SDS011;37377;45.186;9.778;2024-01-25T10:14:01;186.3;;;142.1;;
51292;SDS011;37377;45.186;9.778;2024-01-25T10:15:00;186.3;;;142.1;;
51292;SDS011;37377;45.186;9.778;2024-01-25T10:16:00;186.3;;;142.1;;
51292;SDS011;37377;45.186;9.778;2024-01-25T10:17:01;186.3;;;142.1;;
51292;SDS011;37377;45.186;9.778;2024-01-25T10:18:13;176.6;;;140.3;;
51292;SDS011;37377;45.186;9.778;2024-01-25T10:19:02;176.6;;;140.3;;
51292;SDS011;37377;45.186;9.778;2024-01-25T10:20:04;182.2;;;144.3;;
51292;SDS011;37377;45.186;9.778;2024-01-25T10:21:03;182.2;;;144.3;;
51292;SDS011;37377;45.186;9.778;2024-01-25T10:22:01;181.6;;;146.4;;
51292;SDS011;37377;45.186;9.778;2024-01-25T10:23:02;181.6;;;146.4;;
51292;SDS011;37377;45.186;9.778;2024-01-25T10:24:01;181.6;;;146.4;;
51292;SDS011;37377;45.186;9.778;2024-01-25T10:25:01;181.6;;;146.4;;
51292;SDS011;37377;45.186;9.778;2024-01-25T10:26:02;159.7;;;123.8;;
51292;SDS011;37377;45.186;9.778;2024-01-25T10:27:00;159.7;;;123.8;;
51292;SDS011;37377;45.186;9.778;2024-01-25T10:28:00;163.8;;;124.2;;
51292;SDS011;37377;45.186;9.778;2024-01-25T10:29:03;162.9;;;126.2;;
51292;SDS011;37377;45.186;9.778;2024-01-25T10:30:00;162.9;;;126.2;;
51292;SDS011;37377;45.186;9.778;2024-01-25T10:31:02;162.9;;;126.2;;
51292;SDS011;37377;45.186;9.778;2024-01-25T10:32:02;162.9;;;126.2;;
51292;SDS011;37377;45.186;9.778;2024-01-25T10:33:01;162.9;;;126.2;;
51292;SDS011;37377;45.186;9.778;2024-01-25T10:34:01;150.9;;;125.4;;
51292;SDS011;37377;45.186;9.778;2024-01-25T10:35:02;150.9;;;125.4;;
51292;SDS011;37377;45.186;9.778;2024-01-25T10:36:02;150.9;;;125.4;;
51292;SDS011;37377;45.186;9.778;2024-01-25T10:42:01;151.9;;;122.7;;
51292;SDS011;37377;45.186;9.778;2024-01-25T10:43:00;151.9;;;122.7;;
51292;SDS011;37377;45.186;9.778;2024-01-25T10:44:01;151.9;;;122.7;;
51292;SDS011;37377;45.186;9.778;2024-01-25T10:45:01;151.9;;;122.7;;
51292;SDS011;37377;45.186;9.778;2024-01-25T10:46:05;172.9;;;125.6;;
51292;SDS011;37377;45.186;9.778;2024-01-25T10:47:00;172.9;;;125.6;;
51292;SDS011;37377;45.186;9.778;2024-01-25T11:02:01;151.8;;;125.0;;
51292;SDS011;37377;45.186;9.778;2024-01-25T11:03:01;152.2;;;74.6;;
51292;SDS011;37377;45.186;9.778;2024-01-25T11:04:01;152.2;;;74.6;;
51292;SDS011;37377;45.186;9.778;2024-01-25T11:05:18;152.2;;;74.6;;
51292;SDS011;37377;45.186;9.778;2024-01-25T11:06:10;152.2;;;74.6;;
51292;SDS011;37377;45.186;9.778;2024-01-25T11:28:01;20.9;;;12.3;;
51292;SDS011;37377;45.186;9.778;2024-01-25T11:29:00;20.9;;;12.3;;
51292;SDS011;37377;45.186;9.778;2024-01-25T11:30:00;12.8;;;11.2;;
51292;SDS011;37377;45.186;9.778;2024-01-25T11:31:00;12.8;;;11.2;;
51292;SDS011;37377;45.186;9.778;2024-01-25T11:32:00;21.6;;;13.3;;
51292;SDS011;37377;45.186;9.778;2024-01-25T11:33:06;21.6;;;13.3;;
51292;SDS011;37377;45.186;9.778;2024-01-25T11:34:01;18.5;;;12.5;;
51292;SDS011;37377;45.186;9.778;2024-01-25T11:35:01;18.5;;;12.5;;
51292;SDS011;37377;45.186;9.778;2024-01-25T11:36:00;17.3;;;12.8;;
51292;SDS011;37377;45.186;9.778;2024-01-25T11:37:00;17.3;;;12.8;;
51292;SDS011;37377;45.186;9.778;2024-01-25T11:38:01;15.1;;;11.5;;
51292;SDS011;37377;45.186;9.778;2024-01-25T11:39:00;15.1;;;11.5;;
51292;SDS011;37377;45.186;9.778;2024-01-25T11:40:00;16.8;;;12.5;;
51292;SDS011;37377;45.186;9.778;2024-01-25T11:41:01;16.8;;;12.5;;
51292;SDS011;37377;45.186;9.778;2024-01-25T11:42:00;17.1;;;12.5;;
51292;SDS011;37377;45.186;9.778;2024-01-25T11:43:02;17.1;;;12.5;;
51292;SDS011;37377;45.186;9.778;2024-01-25T11:45:00;128.2;;;89.2;;
51292;SDS011;37377;45.186;9.778;2024-01-25T11:46:00;128.2;;;89.2;;
51292;SDS011;37377;45.186;9.778;2024-01-25T11:47:00;110.8;;;93.3;;
51292;SDS011;37377;45.186;9.778;2024-01-25T11:48:00;110.8;;;93.3;;
51292;SDS011;37377;45.186;9.778;2024-01-25T11:49:01;114.5;;;98.5;;
51292;SDS011;37377;45.186;9.778;2024-01-25T11:50:01;114.5;;;98.5;;
51292;SDS011;37377;45.186;9.778;2024-01-25T11:51:00;123.1;;;103.3;;
51292;SDS011;37377;45.186;9.778;2024-01-25T11:52:02;123.1;;;103.3;;
51292;SDS011;37377;45.186;9.778;2024-01-25T11:53:00;141.7;;;114.9;;
51292;SDS011;37377;45.186;9.778;2024-01-25T11:54:00;141.7;;;114.9;;
51292;SDS011;37377;45.186;9.778;2024-01-25T11:55:02;147.0;;;117.7;;
51292;SDS011;37377;45.186;9.778;2024-01-25T11:56:01;147.0;;;117.7;;
51292;SDS011;37377;45.186;9.778;2024-01-25T11:57:00;148.9;;;120.4;;
51292;SDS011;37377;45.186;9.778;2024-01-25T11:58:00;148.9;;;120.4;;
51292;SDS011;37377;45.186;9.778;2024-01-25T11:59:01;153.7;;;124.6;;
51292;SDS011;37377;45.186;9.778;2024-01-25T12:00:01;153.7;;;124.6;;
51292;SDS011;37377;45.186;9.778;2024-01-25T12:01:02;168.0;;;135.2;;
51292;SDS011;37377;45.186;9.778;2024-01-25T12:02:00;168.0;;;135.2;;
51292;SDS011;37377;45.186;9.778;2024-01-25T12:03:01;174.6;;;138.6;;
51292;SDS011;37377;45.186;9.778;2024-01-25T12:04:01;174.6;;;138.6;;
51292;SDS011;37377;45.186;9.778;2024-01-25T12:05:02;174.6;;;139.7;;
51292;SDS011;37377;45.186;9.778;2024-01-25T12:06:00;174.6;;;139.7;;
51292;SDS011;37377;45.186;9.778;2024-01-25T12:07:01;175.8;;;138.9;;
51292;SDS011;37377;45.186;9.778;2024-01-25T12:08:01;175.8;;;138.9;;
51292;SDS011;37377;45.186;9.778;2024-01-25T12:09:08;178.3;;;142.2;;
51292;SDS011;37377;45.186;9.778;2024-01-25T12:10:05;178.3;;;142.2;;
51292;SDS011;37377;45.186;9.778;2024-01-25T12:11:05;175.8;;;141.9;;
51292;SDS011;37377;45.186;9.778;2024-01-25T12:12:01;175.8;;;141.9;;
51292;SDS011;37377;45.186;9.778;2024-01-25T12:13:00;180.8;;;140.4;;
51292;SDS011;37377;45.186;9.778;2024-01-25T12:14:00;180.8;;;140.4;;
51292;SDS011;37377;45.186;9.778;2024-01-25T12:15:04;184.1;;;142.1;;
51292;SDS011;37377;45.186;9.778;2024-01-25T12:16:02;184.1;;;142.1;;
51292;SDS011;37377;45.186;9.778;2024-01-25T12:17:01;176.9;;;142.9;;
51292;SDS011;37377;45.186;9.778;2024-01-25T12:18:01;176.9;;;142.9;;
51292;SDS011;37377;45.186;9.778;2024-01-25T12:19:01;182.8;;;147.9;;
51292;SDS011;37377;45.186;9.778;2024-01-25T12:20:01;182.8;;;147.9;;
51292;SDS011;37377;45.186;9.778;2024-01-25T12:21:05;178.7;;;144.5;;
51292;SDS011;37377;45.186;9.778;2024-01-25T12:22:00;178.7;;;144.5;;
51292;SDS011;37377;45.186;9.778;2024-01-25T12:23:00;180.6;;;143.6;;
51292;SDS011;37377;45.186;9.778;2024-01-25T12:24:00;180.6;;;143.6;;
51292;SDS011;37377;45.186;9.778;2024-01-25T12:25:01;177.3;;;143.1;;
51292;SDS011;37377;45.186;9.778;2024-01-25T12:26:03;177.3;;;143.1;;
51292;SDS011;37377;45.186;9.778;2024-01-25T12:27:00;182.9;;;145.1;;
51292;SDS011;37377;45.186;9.778;2024-01-25T12:28:00;182.9;;;145.1;;
51292;SDS011;37377;45.186;9.778;2024-01-25T12:29:00;183.6;;;144.8;;
51292;SDS011;37377;45.186;9.778;2024-01-25T12:30:00;183.6;;;144.8;;
51292;SDS011;37377;45.186;9.778;2024-01-25T12:31:03;183.0;;;146.2;;
51292;SDS011;37377;45.186;9.778;2024-01-25T12:32:00;183.0;;;146.2;;
51292;SDS011;37377;45.186;9.778;2024-01-25T12:33:00;181.1;;;144.8;;
51292;SDS011;37377;45.186;9.778;2024-01-25T12:34:01;181.1;;;144.8;;
51292;SDS011;37377;45.186;9.778;2024-01-25T12:35:01;176.5;;;143.2;;
51292;SDS011;37377;45.186;9.778;2024-01-25T12:36:03;176.5;;;143.2;;
51292;SDS011;37377;45.186;9.778;2024-01-25T12:37:00;175.8;;;137.9;;
51292;SDS011;37377;45.186;9.778;2024-01-25T12:38:00;175.8;;;137.9;;
51292;SDS011;37377;45.186;9.778;2024-01-25T12:39:03;179.6;;;138.6;;
51292;SDS011;37377;45.186;9.778;2024-01-25T12:40:02;179.6;;;138.6;;
51292;SDS011;37377;45.186;9.778;2024-01-25T12:41:02;175.7;;;136.6;;
51292;SDS011;37377;45.186;9.778;2024-01-25T12:42:01;175.7;;;136.6;;
51292;SDS011;37377;45.186;9.778;2024-01-25T12:43:00;178.4;;;138.6;;
51292;SDS011;37377;45.186;9.778;2024-01-25T12:44:01;178.4;;;138.6;;
51292;SDS011;37377;45.186;9.778;2024-01-25T12:45:00;171.1;;;141.4;;
51292;SDS011;37377;45.186;9.778;2024-01-25T12:46:10;175.0;;;140.3;;
51292;SDS011;37377;45.186;9.778;2024-01-25T12:47:02;175.0;;;140.3;;
51292;SDS011;37377;45.186;9.778;2024-01-25T12:48:02;175.0;;;140.3;;
51292;SDS011;37377;45.186;9.778;2024-01-25T12:49:00;170.5;;;138.2;;
51292;SDS011;37377;45.186;9.778;2024-01-25T12:50:02;170.5;;;138.2;;
51292;SDS011;37377;45.186;9.778;2024-01-25T12:51:01;172.3;;;134.1;;
51292;SDS011;37377;45.186;9.778;2024-01-25T12:52:01;172.3;;;134.1;;
51292;SDS011;37377;45.186;9.778;2024-01-25T12:53:02;167.7;;;135.1;;
51292;SDS011;37377;45.186;9.778;2024-01-25T12:54:00;167.7;;;135.1;;
51292;SDS011;37377;45.186;9.778;2024-01-25T12:55:02;171.2;;;134.7;;
51292;SDS011;37377;45.186;9.778;2024-01-25T12:56:00;171.2;;;134.7;;
51292;SDS011;37377;45.186;9.778;2024-01-25T12:57:00;174.9;;;140.6;;
51292;SDS011;37377;45.186;9.778;2024-01-25T12:58:00;174.9;;;140.6;;
51292;SDS011;37377;45.186;9.778;2024-01-25T12:59:00;174.8;;;138.3;;
51292;SDS011;37377;45.186;9.778;2024-01-25T13:00:00;174.8;;;138.3;;
51292;SDS011;37377;45.186;9.778;2024-01-25T13:01:02;171.2;;;137.2;;
51292;SDS011;37377;45.186;9.778;2024-01-25T13:02:00;171.2;;;137.2;;
51292;SDS011;37377;45.186;9.778;2024-01-25T13:03:02;169.5;;;135.9;;
51292;SDS011;37377;45.186;9.778;2024-01-25T13:04:01;169.5;;;135.9;;
51292;SDS011;37377;45.186;9.778;2024-01-25T13:05:02;177.5;;;136.0;;
51292;SDS011;37377;45.186;9.778;2024-01-25T13:06:03;177.5;;;136.0;;
51292;SDS011;37377;45.186;9.778;2024-01-25T13:07:00;173.4;;;135.0;;
51292;SDS011;37377;45.186;9.778;2024-01-25T13:08:02;173.4;;;135.0;;
51292;SDS011;37377;45.186;9.778;2024-01-25T13:09:00;171.9;;;137.5;;
51292;SDS011;37377;45.186;9.778;2024-01-25T13:10:00;171.9;;;137.5;;
51292;SDS011;37377;45.186;9.778;2024-01-25T13:11:00;170.0;;;134.0;;
51292;SDS011;37377;45.186;9.778;2024-01-25T13:12:01;170.0;;;134.0;;
51292;SDS011;37377;45.186;9.778;2024-01-25T13:13:00;167.1;;;136.2;;
51292;SDS011;37377;45.186;9.778;2024-01-25T13:14:00;167.1;;;136.2;;
51292;SDS011;37377;45.186;9.778;2024-01-25T13:15:00;168.6;;;135.7;;
51292;SDS011;37377;45.186;9.778;2024-01-25T13:16:02;168.6;;;135.7;;
51292;SDS011;37377;45.186;9.778;2024-01-25T13:17:00;172.4;;;138.0;;
51292;SDS011;37377;45.186;9.778;2024-01-25T13:18:01;172.4;;;138.0;;
51292;SDS011;37377;45.186;9.778;2024-01-25T13:19:00;169.3;;;137.8;;
51292;SDS011;37377;45.186;9.778;2024-01-25T13:20:00;169.3;;;137.8;;
51292;SDS011;37377;45.186;9.778;2024-01-25T13:21:00;165.7;;;133.9;;
51292;SDS011;37377;45.186;9.778;2024-01-25T13:22:01;165.7;;;133.9;;
51292;SDS011;37377;45.186;9.778;2024-01-25T13:23:00;161.6;;;131.2;;
51292;SDS011;37377;45.186;9.778;2024-01-25T13:24:00;161.6;;;131.2;;
51292;SDS011;37377;45.186;9.778;2024-01-25T13:25:01;162.6;;;131.1;;
51292;SDS011;37377;45.186;9.778;2024-01-25T13:26:01;162.6;;;131.1;;
51292;SDS011;37377;45.186;9.778;2024-01-25T13:27:00;170.2;;;134.6;;
51292;SDS011;37377;45.186;9.778;2024-01-25T13:28:00;170.2;;;134.6;;
51292;SDS011;37377;45.186;9.778;2024-01-25T13:29:00;159.2;;;130.4;;
51292;SDS011;37377;45.186;9.778;2024-01-25T13:30:00;159.2;;;130.4;;
51292;SDS011;37377;45.186;9.778;2024-01-25T13:31:00;163.2;;;132.7;;
51292;SDS011;37377;45.186;9.778;2024-01-25T13:32:00;163.2;;;132.7;;
51292;SDS011;37377;45.186;9.778;2024-01-25T13:33:00;161.5;;;133.5;;
51292;SDS011;37377;45.186;9.778;2024-01-25T13:34:01;161.5;;;133.5;;
51292;SDS011;37377;45.186;9.778;2024-01-25T13:35:00;161.8;;;133.0;;
51292;SDS011;37377;45.186;9.778;2024-01-25T13:36:00;161.8;;;133.0;;
51292;SDS011;37377;45.186;9.778;2024-01-25T13:37:00;160.6;;;130.3;;
51292;SDS011;37377;45.186;9.778;2024-01-25T13:38:01;160.6;;;130.3;;
51292;SDS011;37377;45.186;9.778;2024-01-25T13:39:00;163.5;;;134.3;;
51292;SDS011;37377;45.186;9.778;2024-01-25T13:40:00;163.5;;;134.3;;
51292;SDS011;37377;45.186;9.778;2024-01-25T13:41:00;174.1;;;137.9;;
51292;SDS011;37377;45.186;9.778;2024-01-25T13:42:00;174.1;;;137.9;;
51292;SDS011;37377;45.186;9.778;2024-01-25T13:43:00;174.7;;;140.6;;
51292;SDS011;37377;45.186;9.778;2024-01-25T13:44:00;174.7;;;140.6;;
51292;SDS011;37377;45.186;9.778;2024-01-25T13:45:00;170.7;;;138.6;;
51292;SDS011;37377;45.186;9.778;2024-01-25T13:46:00;170.7;;;138.6;;
51292;SDS011;37377;45.186;9.778;2024-01-25T13:47:01;172.0;;;140.0;;
51292;SDS011;37377;45.186;9.778;2024-01-25T13:48:00;172.0;;;140.0;;
51292;SDS011;37377;45.186;9.778;2024-01-25T13:49:00;166.6;;;137.3;;
51292;SDS011;37377;45.186;9.778;2024-01-25T13:50:01;166.6;;;137.3;;
51292;SDS011;37377;45.186;9.778;2024-01-25T13:51:00;171.8;;;135.8;;
51292;SDS011;37377;45.186;9.778;2024-01-25T13:52:02;171.8;;;135.8;;
51292;SDS011;37377;45.186;9.778;2024-01-25T13:53:00;159.8;;;131.1;;
51292;SDS011;37377;45.186;9.778;2024-01-25T13:54:00;159.8;;;131.1;;
51292;SDS011;37377;45.186;9.778;2024-01-25T13:55:00;160.6;;;132.6;;
51292;SDS011;37377;45.186;9.778;2024-01-25T13:56:00;160.6;;;132.6;;
51292;SDS011;37377;45.186;9.778;2024-01-25T13:57:00;164.1;;;133.9;;
51292;SDS011;37377;45.186;9.778;2024-01-25T13:58:02;164.1;;;133.9;;
51292;SDS011;37377;45.186;9.778;2024-01-25T13:59:00;174.0;;;134.6;;
51292;SDS011;37377;45.186;9.778;2024-01-25T14:00:00;174.0;;;134.6;;
51292;SDS011;37377;45.186;9.778;2024-01-25T14:01:00;173.2;;;134.8;;
51292;SDS011;37377;45.186;9.778;2024-01-25T14:02:00;173.2;;;134.8;;
51292;SDS011;37377;45.186;9.778;2024-01-25T14:03:01;164.7;;;133.4;;
51292;SDS011;37377;45.186;9.778;2024-01-25T14:04:00;164.7;;;133.4;;
51292;SDS011;37377;45.186;9.778;2024-01-25T14:05:01;164.0;;;132.1;;
51292;SDS011;37377;45.186;9.778;2024-01-25T14:06:04;164.0;;;132.1;;
51292;SDS011;37377;45.186;9.778;2024-01-25T14:07:00;168.9;;;135.8;;
51292;SDS011;37377;45.186;9.778;2024-01-25T14:08:01;168.9;;;135.8;;
51292;SDS011;37377;45.186;9.778;2024-01-25T14:09:01;171.3;;;135.3;;
51292;SDS011;37377;45.186;9.778;2024-01-25T14:10:00;171.3;;;135.3;;
51292;SDS011;37377;45.186;9.778;2024-01-25T14:11:00;162.9;;;134.4;;
51292;SDS011;37377;45.186;9.778;2024-01-25T14:12:00;162.9;;;134.4;;
51292;SDS011;37377;45.186;9.778;2024-01-25T14:13:00;161.7;;;133.5;;
51292;SDS011;37377;45.186;9.778;2024-01-25T14:14:00;161.7;;;133.5;;
51292;SDS011;37377;45.186;9.778;2024-01-25T14:15:00;158.1;;;131.6;;
51292;SDS011;37377;45.186;9.778;2024-01-25T14:16:01;158.1;;;131.6;;
51292;SDS011;37377;45.186;9.778;2024-01-25T14:17:00;163.2;;;133.6;;
51292;SDS011;37377;45.186;9.778;2024-01-25T14:18:00;163.2;;;133.6;;
51292;SDS011;37377;45.186;9.778;2024-01-25T14:19:03;162.5;;;132.9;;
51292;SDS011;37377;45.186;9.778;2024-01-25T14:20:04;162.5;;;132.9;;
51292;SDS011;37377;45.186;9.778;2024-01-25T14:21:00;157.7;;;129.5;;
51292;SDS011;37377;45.186;9.778;2024-01-25T14:22:11;157.7;;;129.5;;
51292;SDS011;37377;45.186;9.778;2024-01-25T14:23:00;160.6;;;131.1;;
51292;SDS011;37377;45.186;9.778;2024-01-25T14:24:00;160.6;;;131.1;;
51292;SDS011;37377;45.186;9.778;2024-01-25T14:25:01;165.4;;;130.2;;
51292;SDS011;37377;45.186;9.778;2024-01-25T14:26:00;165.4;;;130.2;;
51292;SDS011;37377;45.186;9.778;2024-01-25T14:27:00;156.9;;;130.9;;
51292;SDS011;37377;45.186;9.778;2024-01-25T14:28:00;156.9;;;130.9;;
51292;SDS011;37377;45.186;9.778;2024-01-25T14:29:01;163.3;;;133.9;;
51292;SDS011;37377;45.186;9.778;2024-01-25T14:30:01;163.3;;;133.9;;
51292;SDS011;37377;45.186;9.778;2024-01-25T14:31:01;168.0;;;136.8;;
51292;SDS011;37377;45.186;9.778;2024-01-25T14:32:02;168.0;;;136.8;;
51292;SDS011;37377;45.186;9.778;2024-01-25T14:33:00;168.4;;;137.5;;
51292;SDS011;37377;45.186;9.778;2024-01-25T14:34:00;168.4;;;137.5;;
51292;SDS011;37377;45.186;9.778;2024-01-25T14:35:01;163.9;;;134.3;;
51292;SDS011;37377;45.186;9.778;2024-01-25T14:36:00;163.9;;;134.3;;
51292;SDS011;37377;45.186;9.778;2024-01-25T14:37:01;168.5;;;137.4;;
51292;SDS011;37377;45.186;9.778;2024-01-25T14:38:00;168.5;;;137.4;;
51292;SDS011;37377;45.186;9.778;2024-01-25T14:39:02;164.8;;;136.9;;
51292;SDS011;37377;45.186;9.778;2024-01-25T14:40:11;164.8;;;136.9;;
51292;SDS011;37377;45.186;9.778;2024-01-25T14:41:03;173.2;;;140.5;;
51292;SDS011;37377;45.186;9.778;2024-01-25T14:42:00;173.2;;;140.5;;
51292;SDS011;37377;45.186;9.778;2024-01-25T14:43:02;169.7;;;139.3;;
51292;SDS011;37377;45.186;9.778;2024-01-25T14:44:01;169.7;;;139.3;;
51292;SDS011;37377;45.186;9.778;2024-01-25T14:45:00;172.5;;;139.7;;
51292;SDS011;37377;45.186;9.778;2024-01-25T14:46:00;172.5;;;139.7;;